METAR Data
IDs: Format: Raw Decoded Include TAF

Data at: 0840 UTC 01 Aug 2021

EDDK 010820Z 24004KT 180V330 9999 SCT022 18/12 Q1010 NOSIG